createdAt,value
2018-03-12T00:00:06.109Z,19.97
2018-03-12T00:02:34.423Z,18.47
2018-03-12T00:05:02.739Z,20.70
2018-03-12T00:07:31.049Z,21.37
2018-03-12T00:10:00.129Z,21.30
2018-03-12T00:12:29.253Z,20.13
2018-03-12T00:14:57.587Z,21.50
2018-03-12T00:17:25.909Z,19.27
2018-03-12T00:19:55.013Z,18.50
2018-03-12T00:22:34.623Z,18.70
2018-03-12T00:25:02.951Z,18.90
2018-03-12T00:27:31.269Z,18.03
2018-03-12T00:29:59.615Z,17.17
2018-03-12T00:32:27.907Z,14.33
2018-03-12T00:34:56.229Z,15.30
2018-03-12T00:37:24.546Z,15.07
2018-03-12T00:39:53.647Z,14.80
2018-03-12T00:42:22.787Z,15.13
2018-03-12T00:44:51.099Z,13.57
2018-03-12T00:47:19.406Z,13.37
2018-03-12T00:49:48.479Z,15.00
2018-03-12T00:52:16.811Z,14.43
2018-03-12T00:54:45.109Z,12.77
2018-03-12T00:57:13.423Z,13.60
2018-03-12T00:59:41.738Z,13.23
2018-03-12T01:02:10.825Z,13.50
2018-03-12T01:04:39.897Z,13.83
2018-03-12T01:07:08.245Z,14.70
2018-03-12T01:09:36.607Z,14.27
2018-03-12T01:12:04.944Z,16.43
2018-03-12T01:14:33.257Z,14.83
2018-03-12T01:17:02.345Z,16.27
2018-03-12T01:19:30.673Z,15.40
2018-03-12T01:21:58.978Z,15.27
2018-03-12T01:24:27.301Z,16.83
2018-03-12T01:26:56.381Z,15.40
2018-03-12T01:29:24.686Z,17.20
2018-03-12T01:31:53.789Z,15.90
2018-03-12T01:34:23.730Z,15.50
2018-03-12T01:36:52.024Z,15.30
2018-03-12T01:39:21.181Z,16.23
2018-03-12T01:41:50.259Z,16.17
2018-03-12T01:44:18.587Z,15.73
2018-03-12T01:46:46.902Z,15.43
2018-03-12T01:49:16.008Z,14.73
2018-03-12T01:51:45.098Z,14.97
2018-03-12T01:54:13.432Z,16.20
2018-03-12T01:56:42.527Z,15.57
2018-03-12T01:59:11.630Z,17.40
2018-03-12T02:01:40.745Z,16.63
2018-03-12T02:04:09.817Z,16.30
2018-03-12T02:06:38.146Z,15.73
2018-03-12T02:09:06.450Z,16.60
2018-03-12T02:11:34.750Z,15.97
2018-03-12T02:14:03.056Z,17.47
2018-03-12T02:16:32.217Z,17.10
2018-03-12T02:19:00.512Z,15.60
2018-03-12T02:21:28.828Z,18.03
2018-03-12T02:23:57.938Z,18.30
2018-03-12T02:26:26.304Z,18.73
2018-03-12T02:28:55.388Z,18.80
2018-03-12T02:31:23.709Z,16.90
2018-03-12T02:33:52.032Z,18.53
2018-03-12T02:36:20.352Z,16.77
2018-03-12T02:38:49.461Z,17.83
2018-03-12T02:41:18.533Z,18.67
2018-03-12T02:43:46.838Z,19.80
2018-03-12T02:46:16.685Z,19.13
2018-03-12T02:48:45.050Z,17.67
2018-03-12T02:51:13.389Z,18.23
2018-03-12T02:53:41.714Z,18.43
2018-03-12T02:56:10.037Z,21.93
2018-03-12T02:58:38.338Z,20.50
2018-03-12T03:01:06.689Z,23.00
2018-03-12T03:03:35.014Z,22.53
2018-03-12T03:06:03.340Z,20.00
2018-03-12T03:08:31.673Z,19.60
2018-03-12T03:10:59.992Z,18.07
2018-03-12T03:13:28.297Z,20.43
2018-03-12T03:15:56.626Z,22.23
2018-03-12T03:18:24.945Z,23.13
2018-03-12T03:20:53.263Z,23.27
2018-03-12T03:23:21.568Z,21.10
2018-03-12T03:25:49.984Z,20.60
2018-03-12T03:28:18.279Z,22.27
2018-03-12T03:30:46.609Z,21.63
2018-03-12T03:33:14.914Z,21.93
2018-03-12T03:35:44.012Z,23.27
2018-03-12T03:38:13.096Z,23.90
2018-03-12T03:40:41.396Z,25.97
2018-03-12T03:43:10.484Z,25.37
2018-03-12T03:45:38.842Z,24.83
2018-03-12T03:48:07.144Z,24.43
2018-03-12T03:50:35.535Z,24.10
2018-03-12T03:53:03.839Z,22.87
2018-03-12T03:55:32.150Z,23.80
2018-03-12T03:58:00.502Z,23.20
2018-03-12T04:00:28.813Z,22.53
2018-03-12T04:02:57.124Z,21.20
2018-03-12T04:05:25.441Z,23.53
2018-03-12T04:07:54.510Z,23.30
2018-03-12T04:10:22.806Z,22.63
2018-03-12T04:12:51.130Z,22.03
2018-03-12T04:15:19.428Z,23.47
2018-03-12T04:17:47.728Z,22.00
2018-03-12T04:20:16.040Z,22.00
2018-03-12T04:22:45.104Z,22.83
2018-03-12T04:25:13.422Z,21.60
2018-03-12T04:27:42.541Z,22.63
2018-03-12T04:30:10.865Z,23.67
2018-03-12T04:32:39.159Z,24.20
2018-03-12T04:35:07.508Z,24.40
2018-03-12T04:37:35.833Z,23.30
2018-03-12T04:40:04.172Z,23.67
2018-03-12T04:42:32.497Z,25.80
2018-03-12T04:45:00.808Z,24.37
2018-03-12T04:47:29.899Z,27.60
2018-03-12T04:49:58.986Z,27.77
2018-03-12T04:52:27.312Z,26.20
2018-03-12T04:54:55.670Z,28.00
2018-03-12T04:57:24.751Z,24.23
2018-03-12T04:59:53.054Z,26.50
2018-03-12T05:02:21.386Z,24.67
2018-03-12T05:04:50.500Z,26.20
2018-03-12T05:07:18.881Z,24.40
2018-03-12T05:09:47.174Z,25.43
2018-03-12T05:12:15.508Z,25.43
2018-03-12T05:14:43.813Z,24.53
2018-03-12T05:17:12.135Z,25.87
2018-03-12T05:19:42.173Z,24.43
2018-03-12T05:22:10.497Z,23.87
2018-03-12T05:24:38.822Z,24.37
2018-03-12T05:27:08.032Z,24.47
2018-03-12T05:29:37.804Z,23.70
2018-03-12T05:32:06.732Z,26.80
2018-03-12T05:34:35.044Z,24.07
2018-03-12T05:37:03.349Z,22.47
2018-03-12T05:39:31.648Z,21.77
2018-03-12T05:41:59.960Z,23.70
2018-03-12T05:44:29.035Z,23.33
2018-03-12T05:46:57.347Z,26.67
2018-03-12T05:49:26.421Z,26.30
2018-03-12T05:51:54.767Z,25.00
2018-03-12T05:54:23.070Z,22.00
2018-03-12T05:56:51.427Z,22.70
2018-03-12T05:59:20.491Z,25.30
2018-03-12T06:01:49.611Z,24.50
2018-03-12T06:04:17.933Z,24.63
2018-03-12T06:06:46.292Z,24.60
2018-03-12T06:09:17.613Z,24.77
2018-03-12T06:11:46.705Z,25.97
2018-03-12T06:14:15.785Z,24.70
2018-03-12T06:16:44.089Z,26.63
2018-03-12T06:19:13.905Z,30.13
2018-03-12T06:21:43.004Z,29.23
2018-03-12T06:24:12.098Z,29.97
2018-03-12T06:26:40.407Z,29.13
2018-03-12T06:29:08.731Z,32.77
2018-03-12T06:31:37.044Z,31.07
2018-03-12T06:34:06.123Z,28.73
2018-03-12T06:36:34.453Z,28.90
2018-03-12T06:39:02.797Z,30.37
2018-03-12T06:41:31.135Z,29.13
2018-03-12T06:43:59.460Z,28.17
2018-03-12T06:46:27.770Z,29.03
2018-03-12T06:48:56.854Z,28.10
2018-03-12T06:51:25.965Z,26.23
2018-03-12T06:53:55.046Z,24.00
2018-03-12T06:56:23.360Z,22.53
2018-03-12T06:58:51.709Z,21.47
2018-03-12T07:01:20.060Z,21.30
2018-03-12T07:03:48.371Z,19.60
2018-03-12T07:06:16.704Z,21.57
2018-03-12T07:08:45.024Z,20.23
2018-03-12T07:11:13.417Z,20.70
2018-03-12T07:13:41.745Z,17.43
2018-03-12T07:16:10.061Z,18.17
2018-03-12T07:18:38.385Z,17.83
2018-03-12T07:21:07.466Z,16.10
2018-03-12T07:23:35.800Z,15.57
2018-03-12T07:26:04.118Z,17.33
2018-03-12T07:28:32.423Z,19.87
2018-03-12T07:31:01.523Z,17.30
2018-03-12T07:33:29.844Z,17.30
2018-03-12T07:35:58.184Z,18.13
2018-03-12T07:38:26.523Z,17.27
2018-03-12T07:40:54.957Z,17.60
2018-03-12T07:43:23.254Z,16.10
2018-03-12T07:45:52.341Z,16.40
2018-03-12T07:48:21.423Z,16.93
2018-03-12T07:50:49.754Z,15.67
2018-03-12T07:53:18.075Z,15.27
2018-03-12T07:55:46.391Z,16.13
2018-03-12T07:58:15.472Z,15.17
2018-03-12T08:01:25.330Z,13.13
2018-03-12T08:03:53.668Z,15.80
2018-03-12T08:06:21.988Z,15.23
2018-03-12T08:08:50.286Z,15.53
2018-03-12T08:11:18.626Z,15.20
2018-03-12T08:13:46.943Z,14.57
2018-03-12T08:16:15.294Z,16.10
2018-03-12T08:18:43.591Z,13.80
2018-03-12T08:21:11.946Z,13.30
2018-03-12T08:23:41.111Z,12.50
2018-03-12T08:26:10.355Z,13.00
2018-03-12T08:28:38.679Z,12.03
2018-03-12T08:31:07.025Z,12.40
2018-03-12T08:33:35.346Z,10.93
2018-03-12T08:36:03.668Z,11.97
2018-03-12T08:38:32.753Z,11.40
2018-03-12T08:41:01.230Z,12.03
2018-03-12T08:43:29.588Z,11.57
2018-03-12T08:45:57.919Z,11.40
2018-03-12T08:48:27.032Z,10.63
2018-03-12T08:50:55.392Z,9.47
2018-03-12T08:53:24.480Z,10.40
2018-03-12T08:55:52.786Z,9.63
2018-03-12T08:58:21.117Z,10.03
2018-03-12T09:00:49.585Z,9.70
2018-03-12T09:03:17.890Z,9.30
2018-03-12T09:05:46.190Z,9.50
2018-03-12T09:08:14.508Z,9.70
2018-03-12T09:10:42.804Z,9.83
2018-03-12T09:13:11.173Z,10.23
2018-03-12T09:15:39.502Z,11.07
2018-03-12T09:18:07.825Z,9.40
2018-03-12T09:20:36.134Z,12.63
2018-03-12T09:23:05.159Z,8.73
2018-03-12T09:25:33.572Z,8.93
2018-03-12T09:28:02.692Z,10.07
2018-03-12T09:30:30.997Z,10.33
2018-03-12T09:32:59.314Z,9.90
2018-03-12T09:35:27.841Z,10.07
2018-03-12T09:37:56.139Z,8.90
2018-03-12T09:40:24.452Z,9.23
2018-03-12T09:42:52.774Z,8.20
2018-03-12T09:45:21.095Z,8.93
2018-03-12T09:47:49.440Z,9.00
2018-03-12T09:50:17.760Z,6.33
2018-03-12T09:52:46.119Z,7.37
2018-03-12T09:55:14.441Z,7.37
2018-03-12T09:57:42.759Z,6.93
2018-03-12T10:00:11.738Z,7.90
2018-03-12T10:02:40.832Z,10.27
2018-03-12T10:05:09.169Z,7.67
2018-03-12T10:07:37.496Z,6.07
2018-03-12T10:10:05.861Z,7.33
2018-03-12T10:12:34.156Z,5.67
2018-03-12T10:15:02.494Z,5.53
2018-03-12T10:17:30.842Z,5.20
2018-03-12T10:20:00.032Z,6.10
2018-03-12T10:22:29.117Z,5.27
2018-03-12T10:24:57.444Z,5.23
2018-03-12T10:27:25.755Z,4.83
2018-03-12T10:29:54.070Z,6.03
2018-03-12T10:32:23.961Z,6.37
2018-03-12T10:34:52.276Z,4.83
2018-03-12T10:37:21.353Z,4.90
2018-03-12T10:39:49.660Z,5.53
2018-03-12T10:42:18.728Z,5.20
2018-03-12T10:44:47.043Z,7.53
2018-03-12T10:47:16.140Z,5.00
2018-03-12T10:49:45.939Z,4.93
2018-03-12T10:52:15.053Z,5.73
2018-03-12T10:54:44.280Z,4.87
2018-03-12T10:57:12.591Z,4.97
2018-03-12T10:59:40.960Z,6.07
2018-03-12T11:02:10.374Z,6.10
2018-03-12T11:04:38.675Z,5.40
2018-03-12T11:07:14.449Z,6.23
2018-03-12T11:09:43.535Z,4.37
2018-03-12T11:12:11.865Z,5.17
2018-03-12T11:14:40.172Z,6.20
2018-03-12T11:17:08.483Z,4.67
2018-03-12T11:19:36.815Z,5.93
2018-03-12T11:22:05.111Z,6.50
2018-03-12T11:24:33.428Z,4.67
2018-03-12T11:27:01.766Z,36.10
2018-03-12T11:29:30.087Z,4.30
2018-03-12T11:31:58.415Z,5.93
2018-03-12T11:34:26.730Z,4.17
2018-03-12T11:36:55.044Z,3.80
2018-03-12T11:39:24.200Z,4.23
2018-03-12T11:41:52.452Z,5.60
2018-03-12T11:44:20.766Z,4.33
2018-03-12T11:49:23.553Z,4.43
2018-03-12T11:51:51.854Z,4.63
2018-03-12T11:54:20.170Z,3.50
2018-03-12T11:56:49.472Z,5.40
2018-03-12T11:59:18.557Z,5.80
2018-03-12T12:01:46.864Z,2.93
2018-03-12T12:04:15.960Z,6.00
2018-03-12T12:06:45.021Z,4.57
2018-03-12T12:09:13.339Z,4.63
2018-03-12T12:11:42.417Z,3.30
2018-03-12T12:14:10.771Z,4.13
2018-03-12T12:16:39.142Z,5.27
2018-03-12T12:19:07.466Z,3.63
2018-03-12T12:21:35.757Z,4.33
2018-03-12T12:24:04.851Z,7.07
2018-03-12T12:26:33.937Z,5.63
2018-03-12T12:29:03.011Z,6.80
2018-03-12T12:31:31.321Z,5.10
2018-03-12T12:33:59.629Z,5.80
2018-03-12T12:36:27.952Z,4.13
2018-03-12T12:38:56.262Z,5.77
2018-03-12T12:41:24.593Z,4.53
2018-03-12T12:43:52.897Z,4.30
2018-03-12T12:46:21.232Z,5.47
2018-03-12T12:48:51.071Z,5.60
2018-03-12T12:51:19.385Z,4.53
2018-03-12T12:53:47.697Z,5.37
2018-03-12T12:56:16.873Z,6.30
2018-03-12T12:58:45.182Z,5.20
2018-03-12T13:01:14.645Z,4.53
2018-03-12T13:03:42.982Z,3.83
2018-03-12T13:06:12.057Z,4.40
2018-03-12T13:08:41.141Z,4.80
2018-03-12T13:11:09.448Z,3.00
2018-03-12T13:13:38.555Z,3.90
2018-03-12T13:16:07.635Z,4.20
2018-03-12T13:18:35.944Z,5.50
2018-03-12T13:21:04.264Z,3.90
2018-03-12T13:23:32.581Z,3.63
2018-03-12T13:26:00.904Z,6.23
2018-03-12T13:28:29.334Z,10.47
2018-03-12T13:30:59.130Z,4.13
2018-03-12T13:33:27.427Z,4.93
2018-03-12T13:35:55.781Z,3.80
2018-03-12T13:38:24.086Z,3.50
2018-03-12T13:40:55.368Z,3.37
2018-03-12T13:43:23.862Z,4.10
2018-03-12T13:45:52.188Z,4.00
2018-03-12T13:48:20.526Z,3.37
2018-03-12T13:50:49.588Z,4.20
2018-03-12T13:53:17.888Z,3.37
2018-03-12T13:55:47.016Z,4.90
2018-03-12T13:58:15.372Z,3.40
2018-03-12T14:00:44.451Z,5.43
2018-03-12T14:03:12.765Z,4.50
2018-03-12T14:05:41.858Z,4.57
2018-03-12T14:08:10.971Z,3.20
2018-03-12T14:10:39.286Z,4.80
2018-03-12T14:13:08.382Z,6.80
2018-03-12T14:15:37.254Z,4.27
2018-03-12T14:18:05.586Z,3.03
2018-03-12T14:20:33.920Z,6.17
2018-03-12T14:23:02.222Z,4.37
2018-03-12T14:25:30.540Z,5.73
2018-03-12T14:27:58.878Z,3.60
2018-03-12T14:30:27.186Z,3.13
2018-03-12T14:32:55.522Z,4.47
2018-03-12T14:35:23.834Z,4.13
2018-03-12T14:37:52.212Z,6.97
2018-03-12T14:40:20.527Z,4.60
2018-03-12T14:42:49.624Z,3.10
2018-03-12T14:45:17.941Z,5.13
2018-03-12T14:47:46.248Z,3.53
2018-03-12T14:50:14.649Z,5.27
2018-03-12T14:52:43.006Z,4.20
2018-03-12T14:55:11.338Z,7.03
2018-03-12T14:57:39.666Z,4.60
2018-03-12T15:00:08.039Z,4.13
2018-03-12T15:02:36.425Z,4.33
2018-03-12T15:05:04.728Z,5.80
2018-03-12T15:07:33.052Z,2.67
2018-03-12T15:10:02.148Z,2.60
2018-03-12T15:12:30.473Z,2.80
2018-03-12T15:14:58.794Z,2.90
2018-03-12T15:17:27.113Z,2.60
2018-03-12T15:19:55.444Z,3.80
2018-03-12T15:22:23.772Z,4.30
2018-03-12T15:24:52.938Z,4.50
2018-03-12T15:27:22.750Z,4.00
2018-03-12T15:29:51.160Z,2.67
2018-03-12T15:32:20.266Z,3.43
2018-03-12T15:34:49.388Z,4.33
2018-03-12T15:37:17.720Z,3.00
2018-03-12T15:39:46.131Z,3.77
2018-03-12T15:42:15.230Z,3.87
2018-03-12T15:44:44.315Z,2.60
2018-03-12T15:47:12.620Z,2.43
2018-03-12T15:49:40.928Z,4.80
2018-03-12T15:52:09.248Z,3.83
2018-03-12T15:54:37.578Z,4.03
2018-03-12T15:57:05.881Z,3.53
2018-03-12T15:59:34.216Z,4.30
2018-03-12T16:02:03.327Z,4.70
2018-03-12T16:04:31.734Z,4.63
2018-03-12T16:07:00.106Z,3.80
2018-03-12T16:09:28.406Z,4.10
2018-03-12T16:11:56.711Z,3.50
2018-03-12T16:14:25.049Z,3.67
2018-03-12T16:16:53.366Z,4.70
2018-03-12T16:19:21.688Z,2.50
2018-03-12T16:21:50.776Z,2.83
2018-03-12T16:24:19.924Z,2.50
2018-03-12T16:26:48.220Z,2.47
2018-03-12T16:29:16.548Z,1.53
2018-03-12T16:31:44.865Z,3.70
2018-03-12T16:34:13.273Z,1.13
2018-03-12T16:36:41.604Z,1.10
2018-03-12T16:39:09.917Z,1.90
2018-03-12T16:41:38.257Z,1.40
2018-03-12T16:44:07.338Z,2.10
2018-03-12T16:46:35.686Z,1.67
2018-03-12T16:49:04.022Z,1.90
2018-03-12T16:51:33.110Z,2.43
2018-03-12T16:54:02.217Z,2.43
2018-03-12T16:56:31.135Z,3.10
2018-03-12T16:58:59.468Z,3.33
2018-03-12T17:01:27.800Z,2.70
2018-03-12T17:03:56.130Z,2.70
2018-03-12T17:06:24.451Z,3.00
2018-03-12T17:08:52.758Z,3.67
2018-03-12T17:11:21.094Z,4.17
2018-03-12T17:13:50.170Z,5.50
2018-03-12T17:16:18.500Z,4.83
2018-03-12T17:18:46.966Z,3.30
2018-03-12T17:21:16.061Z,4.63
2018-03-12T17:23:45.210Z,6.93
2018-03-12T17:26:13.694Z,3.67
2018-03-12T17:28:42.010Z,5.03
2018-03-12T17:31:10.310Z,3.30
2018-03-12T17:33:39.385Z,4.20
2018-03-12T17:36:08.522Z,4.87
2018-03-12T17:38:36.868Z,4.67
2018-03-12T17:41:06.790Z,5.00
2018-03-12T17:43:35.153Z,5.70
2018-03-12T17:46:03.554Z,5.20
2018-03-12T17:48:31.932Z,4.77
2018-03-12T17:51:00.304Z,5.13
2018-03-12T17:53:29.404Z,4.70
2018-03-12T17:55:57.770Z,5.47
2018-03-12T17:58:26.096Z,4.67
2018-03-12T18:00:55.194Z,4.67
2018-03-12T18:03:24.295Z,4.30
2018-03-12T18:05:53.387Z,5.17
2018-03-12T18:08:22.717Z,3.50
2018-03-12T18:10:51.021Z,4.33
2018-03-12T18:13:19.372Z,5.03
2018-03-12T18:15:47.694Z,3.80
2018-03-12T18:18:16.073Z,4.10
2018-03-12T18:20:44.398Z,4.10
2018-03-12T18:23:13.492Z,4.00
2018-03-12T18:25:43.356Z,4.90
2018-03-12T18:28:11.687Z,3.87
2018-03-12T18:30:40.027Z,4.17
2018-03-12T18:33:08.478Z,5.03
2018-03-12T18:35:36.823Z,8.03
2018-03-12T18:38:05.140Z,5.80
2018-03-12T18:40:33.458Z,5.70
2018-03-12T18:43:02.734Z,5.20
2018-03-12T18:45:31.150Z,4.93
2018-03-12T18:47:59.617Z,6.07
2018-03-12T18:50:27.978Z,5.30
2018-03-12T18:52:56.286Z,6.07
2018-03-12T18:55:24.632Z,6.47
2018-03-12T18:57:53.792Z,8.73
2018-03-12T19:00:22.147Z,8.97
2018-03-12T19:02:50.465Z,10.23
2018-03-12T19:05:18.797Z,11.20
2018-03-12T19:07:47.127Z,10.87
2018-03-12T19:10:16.606Z,13.00
2018-03-12T19:12:44.938Z,12.67
2018-03-12T19:15:14.026Z,14.20
2018-03-12T19:17:42.354Z,20.23
2018-03-12T19:20:10.684Z,20.37
2018-03-12T19:22:39.379Z,20.83
2018-03-12T19:25:07.698Z,18.87
2018-03-12T19:27:36.021Z,22.77
2018-03-12T19:30:04.351Z,27.47
2018-03-12T19:32:32.671Z,28.70
2018-03-12T19:35:01.013Z,24.67
2018-03-12T19:37:29.761Z,27.53
2018-03-12T19:39:58.071Z,36.90
2018-03-12T19:42:27.177Z,37.13
2018-03-12T19:44:56.262Z,39.00
2018-03-12T19:47:24.602Z,28.47
2018-03-12T19:49:52.988Z,35.40
2018-03-12T19:52:21.276Z,32.13
2018-03-12T19:54:49.603Z,42.37
2018-03-12T19:57:18.722Z,40.93
2018-03-12T19:59:47.022Z,36.90
2018-03-12T20:02:15.350Z,36.50
2018-03-12T20:04:44.456Z,42.73
2018-03-12T20:07:13.534Z,43.27
2018-03-12T20:09:41.899Z,39.50
2018-03-12T20:12:23.369Z,44.23
2018-03-12T20:14:59.534Z,47.80
2018-03-12T20:17:27.887Z,51.90
2018-03-12T20:19:56.206Z,52.67
2018-03-12T20:22:24.572Z,43.17
2018-03-12T20:24:53.778Z,46.10
2018-03-12T20:27:22.080Z,49.57
2018-03-12T20:29:50.406Z,41.10
2018-03-12T20:32:18.747Z,41.10
2018-03-12T20:34:47.082Z,41.60
2018-03-12T20:37:15.478Z,43.50
2018-03-12T20:39:43.824Z,38.20
2018-03-12T20:42:12.189Z,37.07
2018-03-12T20:44:41.260Z,48.17
2018-03-12T20:47:09.577Z,45.30
2018-03-12T20:49:38.671Z,48.03
2018-03-12T20:52:07.816Z,47.03
2018-03-12T20:54:36.145Z,42.53
2018-03-12T20:57:04.472Z,50.47
2018-03-12T20:59:32.834Z,50.30
2018-03-12T21:02:01.145Z,53.57
2018-03-12T21:04:29.479Z,46.77
2018-03-12T21:06:58.580Z,45.30
2018-03-12T21:09:27.673Z,50.33
2018-03-12T21:11:56.752Z,52.07
2018-03-12T21:14:25.083Z,43.23
2018-03-12T21:16:53.415Z,41.63
2018-03-12T21:19:21.724Z,40.10
2018-03-12T21:21:50.812Z,43.27
2018-03-12T21:24:19.930Z,42.27
2018-03-12T21:26:48.254Z,41.10
2018-03-12T21:29:17.345Z,43.77
2018-03-12T21:31:45.694Z,38.17
2018-03-12T21:34:14.031Z,33.83
2018-03-12T21:36:42.384Z,33.23
2018-03-12T21:39:10.786Z,35.37
2018-03-12T21:41:39.122Z,35.30
2018-03-12T21:44:07.465Z,37.47
2018-03-12T21:46:35.794Z,36.30
2018-03-12T21:49:10.063Z,37.23
2018-03-12T21:51:38.406Z,30.87
2018-03-12T21:54:06.746Z,36.73
2018-03-12T21:56:35.907Z,33.20
2018-03-12T21:59:04.215Z,41.90
2018-03-12T22:01:32.565Z,39.70
2018-03-12T22:04:00.912Z,44.17
2018-03-12T22:06:29.237Z,42.40
2018-03-12T22:08:57.584Z,43.07
2018-03-12T22:11:25.940Z,38.97
2018-03-12T22:13:55.021Z,42.40
2018-03-12T22:16:23.354Z,48.47
2018-03-12T22:18:51.688Z,41.60
2018-03-12T22:21:20.017Z,45.77
2018-03-12T22:23:48.343Z,51.40
2018-03-12T22:26:16.658Z,49.10
2018-03-12T22:28:44.980Z,53.00
2018-03-12T22:31:13.314Z,54.47
2018-03-12T22:33:41.642Z,58.33
2018-03-12T22:36:09.957Z,72.33
2018-03-12T22:38:39.048Z,57.90
2018-03-12T22:41:07.375Z,66.80
2018-03-12T22:43:35.722Z,66.40
2018-03-12T22:46:04.807Z,67.83
2018-03-12T22:48:33.985Z,79.60
2018-03-12T22:51:02.297Z,64.33
2018-03-12T22:53:30.624Z,73.20
2018-03-12T22:55:59.663Z,81.17
2018-03-12T22:58:27.971Z,69.33
2018-03-12T23:00:57.067Z,70.43
2018-03-12T23:03:25.394Z,67.57
2018-03-12T23:05:53.709Z,72.13
2018-03-12T23:08:22.013Z,70.10
2018-03-12T23:10:51.159Z,75.13
2018-03-12T23:13:19.464Z,90.63
2018-03-12T23:15:48.561Z,94.07
2018-03-12T23:18:16.887Z,85.60
2018-03-12T23:20:45.209Z,90.67
2018-03-12T23:23:13.543Z,94.60
2018-03-12T23:25:42.635Z,89.27
2018-03-12T23:28:11.713Z,91.63
2018-03-12T23:30:40.037Z,95.93
2018-03-12T23:33:08.348Z,90.60
2018-03-12T23:35:36.665Z,110.63
2018-03-12T23:38:04.989Z,111.07
2018-03-12T23:40:33.310Z,120.50
2018-03-12T23:43:01.658Z,120.67
2018-03-12T23:45:29.978Z,93.67
2018-03-12T23:47:58.327Z,118.10
2018-03-12T23:50:26.647Z,96.03
2018-03-12T23:52:54.989Z,95.83
2018-03-12T23:55:23.330Z,85.17
2018-03-12T23:57:52.428Z,82.33
